Time;durP1;ratioP1;P1;durP2;ratioP2;P2;SDS_P1;SDS_P2;PMS_P1;PMS_P2;Temp;Humidity;BMP_temperature;BMP_pressure;BME280_temperature;BME280_humidity;BME280_pressure;Samples;Min_cycle;Max_cycle;Signal;HPM_P1;HPM_P2
2021/07/02 00:01:57;;;;;;;11.75;5.10;;;;;;;22.69;62.32;94523.75;4772426;30;20442;-79
2021/07/02 00:04:22;;;;;;;10.23;4.60;;;;;;;22.64;62.58;94510.97;4784009;30;20031;-78
2021/07/02 00:06:48;;;;;;;9.48;5.18;;;;;;;22.65;62.54;94512.44;4783569;30;20038;-78
2021/07/02 00:09:13;;;;;;;10.75;5.40;;;;;;;22.68;62.63;94516.88;4784345;30;20031;-77
2021/07/02 00:11:39;;;;;;;9.27;5.40;;;;;;;22.56;62.33;94504.66;4784237;30;20055;-78
2021/07/02 00:14:06;;;;;;;12.30;5.30;;;;;;;22.67;61.74;94520.81;4767847;30;20030;-79
2021/07/02 00:16:33;;;;;;;11.00;5.55;;;;;;;22.68;61.71;94516.88;4783564;30;20058;-77
2021/07/02 00:18:59;;;;;;;12.85;5.47;;;;;;;22.64;61.84;94516.41;4783746;30;20495;-77
2021/07/02 00:21:24;;;;;;;9.27;4.90;;;;;;;22.35;61.60;94471.06;4765219;30;20123;-79
2021/07/02 00:23:50;;;;;;;10.40;5.15;;;;;;;22.72;61.61;94525.44;4763894;30;20500;-77
2021/07/02 00:26:15;;;;;;;9.80;5.00;;;;;;;21.99;62.00;94426.25;4765829;30;20507;-79
2021/07/02 00:28:41;;;;;;;10.50;5.13;;;;;;;22.74;61.33;94545.47;4766585;30;20377;-78
2021/07/02 00:31:06;;;;;;;8.45;5.05;;;;;;;22.74;61.29;94564.53;4766006;30;20039;-80
2021/07/02 00:33:32;;;;;;;10.35;4.70;;;;;;;22.81;61.00;94579.50;4765957;30;20044;-80
2021/07/02 00:35:57;;;;;;;9.40;5.20;;;;;;;22.82;60.79;94586.44;4765919;30;20123;-79
2021/07/02 00:38:23;;;;;;;8.45;4.80;;;;;;;22.86;60.42;94595.06;4765655;30;20639;-79
2021/07/02 00:40:48;;;;;;;8.30;4.95;;;;;;;22.94;60.07;94600.16;4765803;30;20035;-79
2021/07/02 00:43:14;;;;;;;8.05;4.13;;;;;;;23.05;59.95;94600.00;4765036;30;20056;-75
2021/07/02 00:45:39;;;;;;;12.48;5.15;;;;;;;23.19;59.71;94601.53;4765274;30;20520;-74
2021/07/02 00:48:05;;;;;;;9.90;3.95;;;;;;;23.30;59.44;94604.06;4748845;30;20043;-74
2021/07/02 00:50:31;;;;;;;8.80;3.90;;;;;;;23.38;58.66;94605.69;4765078;30;20066;-74
2021/07/02 00:52:56;;;;;;;9.23;4.10;;;;;;;23.42;58.67;94605.38;4765000;30;20023;-75
2021/07/02 00:55:22;;;;;;;11.43;4.53;;;;;;;23.55;58.46;94605.44;4765076;30;20417;-74
2021/07/02 00:57:47;;;;;;;10.38;4.22;;;;;;;23.57;58.19;94600.19;4764891;30;20551;-76
2021/07/02 01:00:14;;;;;;;11.85;4.30;;;;;;;23.69;58.59;94607.72;4764075;30;20059;-75
2021/07/02 01:02:40;;;;;;;8.38;4.15;;;;;;;23.76;58.46;94600.91;4764811;30;20044;-75
2021/07/02 01:05:06;;;;;;;6.57;3.95;;;;;;;23.83;58.15;94605.75;4748918;30;20023;-76
2021/07/02 01:07:32;;;;;;;11.43;4.57;;;;;;;23.88;57.89;94597.44;4764916;30;20039;-75
2021/07/02 01:09:57;;;;;;;8.43;4.32;;;;;;;23.95;57.89;94599.56;4764934;30;20042;-75
2021/07/02 01:12:23;;;;;;;11.35;4.28;;;;;;;23.99;57.69;94598.00;4748867;30;20035;-75
2021/07/02 01:14:48;;;;;;;8.10;4.15;;;;;;;24.01;57.29;94598.22;4748645;30;20484;-75
2021/07/02 01:17:14;;;;;;;8.23;3.85;;;;;;;24.04;57.50;94594.44;4764440;30;20590;-74
2021/07/02 01:19:50;;;;;;;6.63;3.58;;;;;;;24.01;57.35;94568.19;4753213;30;20059;-73
2021/07/02 01:22:25;;;;;;;9.02;4.25;;;;;;;23.86;57.25;94539.25;4766623;30;20749;-75
2021/07/02 01:24:54;;;;;;;8.07;3.80;;;;;;;24.16;56.67;94584.78;4766590;30;20134;-74
2021/07/02 01:27:19;;;;;;;6.82;4.20;;;;;;;24.19;56.75;94589.19;4782303;30;20054;-74
2021/07/02 01:29:47;;;;;;;7.45;3.33;;;;;;;24.22;56.89;94593.59;4766426;30;20122;-73
2021/07/02 01:32:12;;;;;;;9.18;3.78;;;;;;;24.26;56.41;94577.66;4782325;30;20431;-74
2021/07/02 01:34:39;;;;;;;9.75;3.90;;;;;;;24.26;56.30;94571.44;4782369;30;20123;-74
2021/07/02 01:37:05;;;;;;;6.57;3.38;;;;;;;24.32;55.82;94581.03;4738020;30;20035;-74
2021/07/02 01:39:30;;;;;;;9.20;3.65;;;;;;;24.36;56.17;94586.91;4763198;30;20473;-76
2021/07/02 01:41:56;;;;;;;6.90;3.42;;;;;;;24.42;55.72;94584.81;4764783;30;20036;-75
2021/07/02 01:44:21;;;;;;;5.68;3.08;;;;;;;24.43;55.66;94586.28;4764467;30;20039;-75
2021/07/02 01:46:48;;;;;;;8.20;3.50;;;;;;;24.04;55.50;94523.50;4748404;30;20035;-75
2021/07/02 01:49:14;;;;;;;6.28;3.67;;;;;;;24.46;55.64;94579.78;4764155;30;20028;-74
2021/07/02 01:51:40;;;;;;;6.45;3.10;;;;;;;24.49;54.92;94578.72;4765172;30;20119;-76
2021/07/02 01:54:05;;;;;;;7.75;3.08;;;;;;;24.57;55.01;94579.53;4767659;30;20031;-74
2021/07/02 01:56:30;;;;;;;5.95;2.58;;;;;;;24.60;54.20;94568.31;4768260;30;20035;-76
2021/07/02 01:58:56;;;;;;;6.25;2.63;;;;;;;24.60;54.21;94567.56;4767771;30;20040;-74
2021/07/02 02:01:21;;;;;;;4.78;2.47;;;;;;;24.60;54.35;94562.09;4767991;30;20035;-74
2021/07/02 02:03:47;;;;;;;5.78;3.03;;;;;;;24.62;53.81;94565.03;4767852;30;20043;-75
2021/07/02 02:06:13;;;;;;;5.53;2.53;;;;;;;24.55;53.93;94543.84;4767782;30;20524;-75
2021/07/02 02:08:38;;;;;;;4.38;2.13;;;;;;;24.67;53.74;94554.00;4766338;30;20142;-76
2021/07/02 02:11:04;;;;;;;5.40;2.97;;;;;;;24.65;53.29;94547.59;4767882;30;20435;-76
2021/07/02 02:13:29;;;;;;;5.40;2.40;;;;;;;24.70;53.63;94538.56;4767589;30;20066;-76
2021/07/02 02:15:54;;;;;;;5.22;2.67;;;;;;;24.52;53.23;94512.16;4767880;30;20119;-76
2021/07/02 02:18:21;;;;;;;4.53;2.20;;;;;;;24.72;52.81;94538.78;4767825;30;20427;-75
2021/07/02 02:20:46;;;;;;;5.43;2.30;;;;;;;24.75;52.98;94545.91;4766037;30;20052;-75
2021/07/02 02:23:12;;;;;;;3.03;2.22;;;;;;;24.74;52.55;94547.16;4769519;30;20039;-74
2021/07/02 02:25:43;;;;;;;6.07;2.20;;;;;;;24.77;52.14;94544.13;4785282;30;20034;-76
2021/07/02 02:28:09;;;;;;;6.20;2.33;;;;;;;24.81;52.27;94549.25;4769472;30;20039;-74
2021/07/02 02:30:36;;;;;;;3.47;2.00;;;;;;;24.81;52.30;94551.97;4785516;30;20112;-75
2021/07/02 02:33:04;;;;;;;3.67;2.00;;;;;;;24.84;52.20;94549.66;4785271;30;20330;-76
2021/07/02 02:35:30;;;;;;;3.85;1.92;;;;;;;24.85;52.07;94545.66;4785312;30;20031;-75
2021/07/02 02:37:55;;;;;;;5.20;1.95;;;;;;;24.86;51.86;94547.13;4785118;30;20039;-75
2021/07/02 02:40:21;;;;;;;3.78;1.90;;;;;;;24.82;51.67;94541.25;4784957;30;20039;-75
2021/07/02 02:42:46;;;;;;;4.00;2.15;;;;;;;24.87;51.49;94554.06;4768770;30;20039;-76
2021/07/02 02:45:11;;;;;;;3.75;2.25;;;;;;;24.87;51.53;94545.88;4785287;30;20116;-77
2021/07/02 02:47:37;;;;;;;3.90;2.15;;;;;;;24.87;51.25;94559.53;4785231;30;20039;-74
2021/07/02 02:50:04;;;;;;;2.35;1.90;;;;;;;24.89;51.33;94557.00;4784617;30;20423;-74
2021/07/02 02:52:29;;;;;;;3.47;1.83;;;;;;;24.90;50.96;94557.72;4754501;30;20483;-76
2021/07/02 02:54:55;;;;;;;4.00;1.88;;;;;;;24.92;50.90;94561.41;4785064;30;20069;-73
2021/07/02 02:57:20;;;;;;;4.85;2.20;;;;;;;24.90;50.79;94558.47;4785052;30;20027;-74
2021/07/02 02:59:46;;;;;;;3.35;2.00;;;;;;;24.90;50.75;94568.66;4784468;30;20035;-75
2021/07/02 03:02:11;;;;;;;2.83;1.92;;;;;;;24.90;50.71;94574.88;4784466;30;20039;-73
2021/07/02 03:04:36;;;;;;;4.32;1.90;;;;;;;24.81;50.55;94560.16;4783861;29;20043;-75
2021/07/02 03:07:05;;;;;;;3.58;1.55;;;;;;;24.90;50.41;94571.38;4768317;30;20039;-75
2021/07/02 03:09:31;;;;;;;4.20;1.73;;;;;;;24.92;50.46;94566.88;4784552;30;20400;-75
2021/07/02 03:12:12;;;;;;;3.63;1.67;;;;;;;24.91;50.09;94573.59;4783435;30;20046;-74
2021/07/02 03:14:37;;;;;;;3.75;1.30;;;;;;;24.91;49.97;94579.03;4783505;30;20046;-73
2021/07/02 03:17:03;;;;;;;2.33;1.63;;;;;;;24.89;49.99;94573.38;4784559;30;20019;-74
2021/07/02 03:19:28;;;;;;;3.45;1.70;;;;;;;24.91;50.17;94581.78;4784466;30;20077;-74
2021/07/02 03:21:54;;;;;;;3.75;1.65;;;;;;;24.91;50.50;94579.03;4784229;30;20497;-76
2021/07/02 03:24:19;;;;;;;2.80;1.83;;;;;;;24.89;50.28;94584.31;4783714;30;20485;-75
2021/07/02 03:26:45;;;;;;;5.15;1.50;;;;;;;24.91;50.10;94592.69;4783915;30;20495;-74
2021/07/02 03:29:10;;;;;;;3.10;1.60;;;;;;;24.91;50.64;94587.25;4784304;30;20051;-76
2021/07/02 03:31:36;;;;;;;2.92;1.58;;;;;;;24.93;50.21;94595.66;4784219;30;20499;-76
2021/07/02 03:34:01;;;;;;;3.40;1.42;;;;;;;24.97;50.07;94595.31;4768127;30;20430;-76
2021/07/02 03:36:27;;;;;;;2.92;1.52;;;;;;;24.99;50.27;94588.09;4784331;30;20529;-75
2021/07/02 03:38:52;;;;;;;4.40;1.65;;;;;;;24.95;50.15;94586.94;4768054;30;20031;-74
2021/07/02 03:41:18;;;;;;;2.42;1.60;;;;;;;24.96;50.95;94582.91;4784385;30;20443;-75
2021/07/02 03:43:43;;;;;;;3.25;1.58;;;;;;;24.95;50.66;94587.66;4783637;30;20031;-75
2021/07/02 03:46:09;;;;;;;5.25;1.95;;;;;;;24.99;50.85;94599.03;4783988;30;20473;-75
2021/07/02 03:48:34;;;;;;;2.55;1.50;;;;;;;24.97;50.76;94600.78;4783622;30;20031;-74
2021/07/02 03:50:59;;;;;;;2.95;1.55;;;;;;;24.73;51.13;94564.81;4783699;30;20046;-74
2021/07/02 03:53:25;;;;;;;2.83;1.67;;;;;;;24.99;51.09;94592.81;4783786;30;20034;-75
2021/07/02 03:55:50;;;;;;;3.67;1.58;;;;;;;24.88;51.00;94588.28;4783811;30;20738;-76
2021/07/02 04:01:23;;;;;;;2.88;1.80;;;;;;;25.02;51.25;94597.97;4768782;30;20554;-76
2021/07/02 04:03:49;;;;;;;3.10;1.83;;;;;;;25.04;51.64;94598.16;4783698;30;20035;-78
2021/07/02 04:06:14;;;;;;;3.17;1.80;;;;;;;24.99;51.19;94593.56;4784324;30;20088;-78
2021/07/02 04:08:39;;;;;;;3.13;1.52;;;;;;;25.09;51.54;94610.97;4783856;30;20043;-77
2021/07/02 04:11:07;;;;;;;2.80;1.90;;;;;;;25.09;51.69;94613.69;4783848;30;20404;-77
2021/07/02 04:13:32;;;;;;;3.38;1.58;;;;;;;25.09;51.50;94624.63;4783840;30;20035;-77
2021/07/02 04:15:58;;;;;;;4.55;1.65;;;;;;;24.67;51.79;94550.56;4783090;29;20427;-77
2021/07/02 04:18:23;;;;;;;3.28;1.75;;;;;;;25.05;51.79;94613.31;4783692;30;20479;-76
2021/07/02 04:20:49;;;;;;;3.72;1.70;;;;;;;24.44;51.75;94522.97;4782930;30;20055;-77
2021/07/02 04:23:14;;;;;;;2.88;1.90;;;;;;;25.15;51.44;94638.91;4767149;30;20034;-78
2021/07/02 04:25:40;;;;;;;4.10;1.95;;;;;;;25.11;51.62;94633.06;4784357;30;20039;-78
2021/07/02 04:28:05;;;;;;;4.20;2.15;;;;;;;24.79;51.82;94590.03;4767683;30;20427;-81
2021/07/02 04:30:31;;;;;;;3.88;2.00;;;;;;;25.10;51.76;94625.38;4769602;30;20102;-80
2021/07/02 04:32:56;;;;;;;4.13;2.10;;;;;;;25.18;51.55;94643.31;4785117;30;20035;-82
2021/07/02 04:35:21;;;;;;;3.53;1.90;;;;;;;25.18;51.61;94648.78;4784534;30;20035;-80
2021/07/02 04:37:47;;;;;;;3.85;2.10;;;;;;;25.19;51.76;94655.72;4785043;30;20035;-79
2021/07/02 04:40:13;;;;;;;3.05;1.73;;;;;;;25.20;51.53;94657.22;4783852;30;20043;-77
2021/07/02 04:42:39;;;;;;;2.88;1.85;;;;;;;25.24;51.66;94652.13;4782944;30;20134;-75
2021/07/02 04:45:11;;;;;;;4.70;2.00;;;;;;;25.25;51.52;94642.69;4767073;30;20121;-75
2021/07/02 04:47:36;;;;;;;3.60;1.90;;;;;;;25.27;51.68;94640.13;4782949;30;20118;-77
2021/07/02 04:50:03;;;;;;;4.35;2.35;;;;;;;25.28;51.68;94658.00;4766942;30;20031;-73
2021/07/02 04:52:29;;;;;;;3.38;2.40;;;;;;;25.30;51.66;94666.41;4783129;30;20027;-77
2021/07/02 04:54:54;;;;;;;5.30;2.70;;;;;;;25.28;52.02;94652.56;4756836;30;20116;-78
2021/07/02 04:57:20;;;;;;;4.70;2.95;;;;;;;25.32;51.75;94650.22;4780409;30;20047;-78
2021/07/02 04:59:47;;;;;;;3.95;3.20;;;;;;;25.30;51.72;94650.00;4758751;30;20038;-77
2021/07/02 05:02:12;;;;;;;5.07;3.20;;;;;;;25.37;51.47;94654.84;4778908;30;20046;-76
2021/07/02 05:04:38;;;;;;;5.38;3.50;;;;;;;25.39;51.43;94663.22;4782878;30;20031;-79
2021/07/02 05:07:03;;;;;;;4.80;3.30;;;;;;;25.42;51.41;94656.69;4782582;30;20038;-78
2021/07/02 05:09:29;;;;;;;6.65;3.28;;;;;;;25.48;51.35;94649.09;4783027;30;20019;-77
2021/07/02 05:11:54;;;;;;;4.50;3.25;;;;;;;25.58;51.08;94652.88;4782543;30;20035;-76
2021/07/02 05:14:20;;;;;;;3.97;3.15;;;;;;;25.66;50.91;94657.16;4782492;30;20031;-77
2021/07/02 05:16:45;;;;;;;5.40;3.20;;;;;;;25.42;50.78;94602.03;4777822;30;20032;-75
2021/07/02 05:19:11;;;;;;;4.30;3.15;;;;;;;25.45;51.00;94601.69;4775628;30;20035;-79
2021/07/02 05:21:36;;;;;;;4.80;3.25;;;;;;;25.92;50.72;94654.31;4751722;30;20043;-81
2021/07/02 05:24:02;;;;;;;6.97;3.47;;;;;;;26.00;50.39;94644.16;4777904;30;20038;-78
2021/07/02 05:26:27;;;;;;;7.88;3.72;;;;;;;26.08;50.00;94662.09;4776166;30;20419;-81
2021/07/02 05:28:53;;;;;;;6.95;3.58;;;;;;;26.21;50.12;94670.22;4782395;30;20514;-80
2021/07/02 05:31:18;;;;;;;3.80;3.35;;;;;;;26.27;50.03;94664.63;4786468;30;20799;-77
2021/07/02 05:33:45;;;;;;;7.25;3.90;;;;;;;26.38;49.84;94673.31;4783789;30;20027;-80
2021/07/02 05:36:10;;;;;;;5.95;3.88;;;;;;;26.42;49.67;94673.72;4772168;30;20031;-78
2021/07/02 05:38:36;;;;;;;8.77;3.85;;;;;;;26.56;49.66;94683.28;4771827;30;20031;-86
2021/07/02 05:41:01;;;;;;;6.07;3.72;;;;;;;26.63;49.99;94671.66;4781167;30;20092;-79
2021/07/02 05:43:27;;;;;;;6.03;3.95;;;;;;;26.75;48.99;94689.25;4782270;30;20038;-78
2021/07/02 05:45:52;;;;;;;6.85;3.80;;;;;;;26.76;49.30;94697.66;4756984;30;20034;-78
2021/07/02 05:48:19;;;;;;;5.72;3.90;;;;;;;26.80;48.93;94687.09;4755099;30;20485;-79
2021/07/02 05:50:45;;;;;;;5.15;3.88;;;;;;;26.82;48.56;94690.03;4757936;30;20134;-79
2021/07/02 05:53:11;;;;;;;5.55;3.90;;;;;;;26.83;49.09;94693.50;4770957;30;20130;-79
2021/07/02 05:55:37;;;;;;;5.22;3.90;;;;;;;26.91;49.00;94700.53;4773800;30;20506;-80
2021/07/02 05:58:03;;;;;;;5.03;4.13;;;;;;;26.95;48.06;94681.75;4764990;30;20032;-80
2021/07/02 06:00:28;;;;;;;4.78;3.95;;;;;;;27.02;48.32;94702.22;4773732;30;20030;-80
2021/07/02 06:02:54;;;;;;;6.45;4.30;;;;;;;27.13;48.07;94694.44;4770232;30;20039;-80
2021/07/02 06:05:19;;;;;;;6.13;4.25;;;;;;;27.19;47.59;94705.22;4778336;30;20036;-79
2021/07/02 06:07:52;;;;;;;7.03;4.30;;;;;;;27.21;47.22;94700.69;4775401;30;20123;-85
2021/07/02 06:10:19;;;;;;;6.43;4.55;;;;;;;27.16;47.46;94707.06;4772561;30;20040;-86
2021/07/02 06:12:45;;;;;;;8.15;4.15;;;;;;;27.15;46.99;94688.41;4785829;30;20126;-76
2021/07/02 06:15:12;;;;;;;5.53;4.40;;;;;;;27.25;47.16;94703.81;4778361;30;20130;-77
2021/07/02 06:17:37;;;;;;;5.22;4.25;;;;;;;27.18;47.23;94693.53;4770738;30;20063;-76
2021/07/02 06:20:03;;;;;;;5.95;4.55;;;;;;;27.35;46.88;94700.00;4784108;30;20043;-77
2021/07/02 06:22:29;;;;;;;5.20;4.70;;;;;;;27.40;46.88;94698.38;4785568;30;20041;-77
2021/07/02 06:24:54;;;;;;;4.30;3.90;;;;;;;27.46;46.43;94715.41;4756256;30;20579;-78
2021/07/02 06:27:20;;;;;;;5.68;4.07;;;;;;;27.44;46.98;94705.00;4785697;30;20027;-77
2021/07/02 06:29:45;;;;;;;5.10;4.53;;;;;;;27.61;46.73;94709.97;4762616;30;20023;-79
2021/07/02 06:32:11;;;;;;;5.75;4.53;;;;;;;27.69;45.68;94719.00;4768996;30;20169;-82
2021/07/02 06:34:36;;;;;;;7.18;4.53;;;;;;;27.68;46.53;94717.50;4785182;30;20520;-81
2021/07/02 06:37:02;;;;;;;6.38;4.25;;;;;;;27.74;46.25;94727.78;4769866;30;20681;-79
2021/07/02 06:39:27;;;;;;;6.15;4.50;;;;;;;27.42;45.99;94673.88;4784490;29;20039;-81
2021/07/02 06:41:53;;;;;;;6.75;4.65;;;;;;;27.71;45.80;94721.91;4769854;30;20055;-79
2021/07/02 06:44:18;;;;;;;6.30;4.50;;;;;;;27.34;45.50;94648.44;4785542;30;20027;-82
2021/07/02 06:46:43;;;;;;;6.82;4.90;;;;;;;27.71;45.21;94708.19;4770001;30;20554;-83
2021/07/02 06:49:09;;;;;;;5.45;4.50;;;;;;;27.92;45.54;94726.72;4768165;30;20038;-83
2021/07/02 06:51:34;;;;;;;5.10;4.60;;;;;;;27.94;45.00;94729.66;4662438;30;20060;-78
2021/07/02 06:54:02;;;;;;;5.45;4.65;;;;;;;27.90;45.28;94721.03;4777205;30;20039;-80
2021/07/02 06:56:28;;;;;;;5.80;4.07;;;;;;;27.49;44.77;94662.22;4774719;30;20028;-77
2021/07/02 06:58:54;;;;;;;7.60;4.70;;;;;;;27.55;44.70;94668.25;4765387;30;20035;-82
2021/07/02 07:01:20;;;;;;;6.55;4.95;;;;;;;27.81;44.23;94694.13;4770438;30;20467;-81
2021/07/02 07:03:46;;;;;;;7.53;4.80;;;;;;;27.99;44.58;94725.28;4773632;30;20035;-79
2021/07/02 07:06:11;;;;;;;5.50;4.30;;;;;;;27.84;44.47;94693.03;4769862;30;20035;-80
2021/07/02 07:08:36;;;;;;;5.00;4.50;;;;;;;27.76;44.29;94675.09;4785389;30;20088;-79
2021/07/02 07:11:03;;;;;;;4.85;4.35;;;;;;;27.86;43.69;94695.22;4769269;30;20095;-82
2021/07/02 07:13:29;;;;;;;5.35;4.85;;;;;;;28.20;43.62;94723.88;4752558;30;20499;-77
2021/07/02 07:15:54;;;;;;;5.75;4.97;;;;;;;28.22;44.01;94726.06;4777235;30;20101;-77
2021/07/02 07:18:19;;;;;;;6.30;5.47;;;;;;;27.96;43.09;94683.16;4772393;30;20031;-76
2021/07/02 07:20:45;;;;;;;6.15;5.18;;;;;;;28.28;43.32;94727.34;4783851;30;20063;-78
2021/07/02 07:23:11;;;;;;;5.90;5.30;;;;;;;28.25;43.28;94714.69;4777080;30;20039;-78
2021/07/02 07:25:37;;;;;;;6.22;5.20;;;;;;;28.24;42.95;94730.47;4749124;30;20071;-77
2021/07/02 07:28:02;;;;;;;5.85;5.10;;;;;;;28.16;43.05;94718.03;4782625;30;20035;-78
2021/07/02 07:30:28;;;;;;;6.28;5.28;;;;;;;28.00;42.93;94700.03;4783673;30;20042;-78
2021/07/02 07:32:54;;;;;;;6.32;5.72;;;;;;;28.13;43.33;94712.88;4783688;30;20059;-79
2021/07/02 07:35:30;;;;;;;7.53;6.00;;;;;;;27.91;43.68;94670.34;4783490;30;20046;-80
2021/07/02 07:37:56;;;;;;;7.65;5.60;;;;;;;28.32;43.33;94724.97;4771483;30;20035;-78
2021/07/02 07:40:26;;;;;;;7.47;5.60;;;;;;;28.39;42.35;94724.25;4768109;30;20368;-78
2021/07/02 07:42:52;;;;;;;6.45;5.63;;;;;;;27.97;42.91;94668.16;4772172;30;20059;-80
2021/07/02 07:45:20;;;;;;;6.50;5.78;;;;;;;28.32;42.70;94724.97;4742685;30;20071;-80
2021/07/02 07:47:46;;;;;;;7.10;5.93;;;;;;;28.42;42.77;94723.88;4777209;30;20159;-79
2021/07/02 07:50:19;;;;;;;8.20;6.28;;;;;;;28.36;43.12;94728.09;4755557;30;20024;-79
2021/07/02 07:53:00;;;;;;;6.75;6.10;;;;;;;28.35;42.50;94734.88;4774121;30;20027;-77
2021/07/02 07:55:29;;;;;;;8.40;6.13;;;;;;;27.91;42.59;94664.88;4773207;30;20536;-81
2021/07/02 07:57:55;;;;;;;9.65;6.18;;;;;;;28.46;42.46;94731.75;4751107;30;20067;-77
2021/07/02 08:00:21;;;;;;;8.57;6.43;;;;;;;28.52;42.36;94724.06;4770645;30;20048;-78
2021/07/02 08:02:46;;;;;;;8.75;6.47;;;;;;;28.43;42.13;94719.09;4775575;30;20427;-76
2021/07/02 08:05:14;;;;;;;9.60;5.90;;;;;;;28.06;42.75;94670.38;4771136;30;20427;-81
2021/07/02 08:07:40;;;;;;;8.38;5.45;;;;;;;28.48;42.92;94723.69;4760425;30;20035;-79
2021/07/02 08:10:08;;;;;;;6.30;5.40;;;;;;;28.42;42.59;94707.41;4756080;30;20522;-83
2021/07/02 08:12:34;;;;;;;6.53;5.50;;;;;;;28.45;42.77;94728.28;4774599;30;20486;-80
2021/07/02 08:14:59;;;;;;;6.80;6.10;;;;;;;28.15;42.41;94678.09;4763093;30;20118;-79
2021/07/02 08:17:28;;;;;;;10.02;5.47;;;;;;;28.48;42.29;94715.47;4779838;30;20035;-81
2021/07/02 08:19:55;;;;;;;7.00;5.63;;;;;;;28.53;41.96;94739.25;4783634;30;20055;-82
2021/07/02 08:22:20;;;;;;;7.28;5.75;;;;;;;28.52;42.34;94726.81;4784814;30;20043;-78
2021/07/02 08:24:46;;;;;;;7.18;5.57;;;;;;;28.56;42.30;94721.69;4784067;30;20396;-78
2021/07/02 08:27:11;;;;;;;6.25;5.03;;;;;;;28.66;41.58;94730.84;4768940;30;20542;-78
2021/07/02 08:29:37;;;;;;;5.50;5.00;;;;;;;28.58;41.88;94719.09;4785370;30;20019;-83
2021/07/02 08:32:03;;;;;;;6.28;5.03;;;;;;;28.33;41.18;94688.00;4784636;30;20034;-79
2021/07/02 08:34:28;;;;;;;6.25;4.80;;;;;;;28.39;40.85;94685.78;4784284;30;20097;-79
2021/07/02 08:36:54;;;;;;;7.13;4.30;;;;;;;28.62;40.89;94708.47;4766924;30;20031;-77
2021/07/02 08:39:19;;;;;;;5.93;4.75;;;;;;;28.71;40.83;94711.44;4783491;30;20979;-78
2021/07/02 08:41:45;;;;;;;6.07;3.97;;;;;;;28.45;40.58;94672.59;4772756;30;20024;-78
2021/07/02 08:44:10;;;;;;;5.28;4.40;;;;;;;28.67;40.69;94693.84;4767168;30;20035;-77
2021/07/02 08:46:36;;;;;;;5.18;3.80;;;;;;;28.66;40.83;94693.09;4780420;30;20035;-77
2021/07/02 08:49:02;;;;;;;6.70;4.00;;;;;;;28.51;40.31;94651.16;4764174;30;20024;-78
2021/07/02 08:51:27;;;;;;;6.60;3.70;;;;;;;28.90;40.59;94701.50;4771685;30;20101;-82
2021/07/02 08:53:54;;;;;;;6.40;3.72;;;;;;;28.90;39.92;94701.50;4785644;30;20031;-88
2021/07/02 08:56:19;;;;;;;4.00;3.38;;;;;;;28.87;40.30;94710.84;4785537;30;20104;-83
2021/07/02 08:58:46;;;;;;;4.60;3.20;;;;;;;28.89;39.92;94696.56;4768163;30;20499;-79
2021/07/02 09:01:38;;;;;;;4.05;2.97;;;;;;;28.74;39.44;94677.34;4781238;30;20055;-81
2021/07/02 09:04:23;;;;;;;4.20;3.08;;;;;;;28.92;39.26;94682.44;4771717;30;20039;-76
2021/07/02 09:07:02;;;;;;;3.90;2.92;;;;;;;28.66;39.29;94654.63;4772281;30;20027;-76
2021/07/02 09:09:46;;;;;;;4.18;3.40;;;;;;;29.02;38.99;94691.56;4767777;30;20031;-78
2021/07/02 09:12:12;;;;;;;4.55;3.78;;;;;;;29.00;39.63;94683.16;4783297;30;20068;-77
2021/07/02 09:14:37;;;;;;;4.95;3.35;;;;;;;28.95;39.63;94686.84;4778921;30;20129;-74
2021/07/02 09:17:09;;;;;;;4.25;3.28;;;;;;;29.07;39.32;94698.88;4771993;30;20101;-72
2021/07/02 09:19:36;;;;;;;5.10;3.25;;;;;;;29.07;39.08;94704.38;4773260;30;20048;-72
2021/07/02 09:22:15;;;;;;;6.63;3.20;;;;;;;29.11;39.27;94699.25;4764575;30;20435;-74
2021/07/02 09:24:45;;;;;;;3.67;3.25;;;;;;;29.18;39.29;94698.50;4754555;30;20046;-75
2021/07/02 09:27:27;;;;;;;5.30;3.30;;;;;;;29.11;39.42;94688.25;4750276;30;20063;-77
2021/07/02 09:30:08;;;;;;;9.70;3.15;;;;;;;29.08;38.50;94692.09;4751422;30;20028;-74
2021/07/02 09:32:41;;;;;;;5.43;3.40;;;;;;;29.04;38.56;94694.50;4759138;30;20051;-74
2021/07/02 09:35:07;;;;;;;4.47;3.10;;;;;;;29.03;38.91;94697.78;4752015;30;20044;-74
2021/07/02 09:37:39;;;;;;;3.65;3.08;;;;;;;28.97;38.24;94689.75;4750468;30;20036;-74
2021/07/02 09:40:12;;;;;;;5.18;3.20;;;;;;;28.87;38.64;94680.59;4735963;30;20056;-74
2021/07/02 09:42:38;;;;;;;5.50;3.20;;;;;;;28.79;39.37;94677.16;4751004;30;20078;-73
2021/07/02 09:45:06;;;;;;;5.05;3.08;;;;;;;28.72;38.77;94673.69;4749798;30;20029;-75
2021/07/02 09:47:32;;;;;;;3.28;2.97;;;;;;;28.72;39.15;94675.13;4751651;30;20032;-74
2021/07/02 09:50:12;;;;;;;3.20;2.80;;;;;;;28.74;38.93;94683.59;4749391;30;20086;-75
2021/07/02 09:52:56;;;;;;;4.90;2.40;;;;;;;28.76;38.57;94675.50;4749203;30;20043;-75
2021/07/02 09:55:23;;;;;;;3.00;2.33;;;;;;;28.66;38.23;94659.38;4750511;30;20028;-75
2021/07/02 09:57:53;;;;;;;3.03;2.05;;;;;;;28.61;38.43;94663.03;4751036;30;20419;-75
2021/07/02 10:00:19;;;;;;;2.47;2.13;;;;;;;28.61;38.83;94660.28;4749679;30;20468;-74
2021/07/02 10:02:57;;;;;;;3.45;2.55;;;;;;;28.52;38.61;94663.59;4749366;30;20041;-74
2021/07/02 10:05:24;;;;;;;2.92;2.42;;;;;;;28.49;38.63;94661.97;4749561;30;20036;-76
2021/07/02 10:07:59;;;;;;;3.60;2.15;;;;;;;28.52;38.36;94669.84;4752266;30;20454;-73
2021/07/02 10:10:25;;;;;;;3.65;2.15;;;;;;;28.44;38.86;94654.66;4749196;30;20022;-74
2021/07/02 10:12:52;;;;;;;4.68;2.45;;;;;;;28.37;39.52;94658.88;4753167;30;20063;-75
2021/07/02 10:15:18;;;;;;;4.72;2.00;;;;;;;28.05;39.84;94616.72;4752896;30;20027;-74
2021/07/02 10:17:44;;;;;;;4.30;1.70;;;;;;;28.35;38.63;94657.94;4752434;30;20429;-76
2021/07/02 10:20:10;;;;;;;4.75;1.88;;;;;;;28.30;39.95;94661.63;4759161;30;20105;-74
2021/07/02 10:22:36;;;;;;;4.18;1.73;;;;;;;28.27;39.49;94662.72;4769615;30;20046;-77
2021/07/02 10:25:02;;;;;;;3.80;1.92;;;;;;;28.22;40.14;94649.91;4785290;30;20043;-76
2021/07/02 10:27:28;;;;;;;4.80;1.70;;;;;;;27.60;40.01;94569.34;4761599;30;20038;-75
2021/07/02 10:29:54;;;;;;;5.93;1.85;;;;;;;28.16;39.63;94663.09;4768126;30;20441;-76
2021/07/02 10:32:20;;;;;;;3.13;1.85;;;;;;;28.07;39.15;94655.38;4769597;30;20023;-77
2021/07/02 10:34:45;;;;;;;3.45;1.70;;;;;;;28.04;40.27;94656.47;4785028;30;20042;-74
2021/07/02 10:37:11;;;;;;;3.75;1.35;;;;;;;28.07;39.76;94652.63;4784666;30;20084;-75
2021/07/02 10:39:37;;;;;;;2.30;1.42;;;;;;;28.08;40.41;94650.59;4768368;30;20096;-79
2021/07/02 10:42:07;;;;;;;2.38;1.83;;;;;;;28.08;40.61;94642.38;4763911;30;20039;-79
2021/07/02 10:44:33;;;;;;;3.75;2.03;;;;;;;27.71;40.48;94590.19;4786098;30;20043;-80
2021/07/02 10:47:01;;;;;;;4.15;2.30;;;;;;;28.07;40.69;94630.66;4755132;30;21051;-80
2021/07/02 10:49:39;;;;;;;3.28;1.98;;;;;;;28.08;41.61;94634.84;4784799;30;20039;-77
2021/07/02 10:52:23;;;;;;;2.63;2.05;;;;;;;28.12;41.90;94637.28;4783944;30;20035;-78
2021/07/02 10:54:53;;;;;;;3.47;2.08;;;;;;;28.22;41.00;94633.44;4784433;30;20039;-76
2021/07/02 10:57:22;;;;;;;4.70;1.95;;;;;;;27.79;41.12;94570.44;4760451;30;20790;-79
2021/07/02 10:59:52;;;;;;;5.60;1.88;;;;;;;28.30;41.43;94632.13;4767290;30;20165;-76
2021/07/02 11:02:18;;;;;;;4.18;2.13;;;;;;;28.37;41.23;94639.63;4782577;30;20047;-83
2021/07/02 11:04:48;;;;;;;2.42;1.73;;;;;;;28.44;41.44;94627.16;4760924;30;20075;-80
2021/07/02 11:07:20;;;;;;;3.35;2.05;;;;;;;28.48;40.20;94617.28;4772010;30;20043;-84
2021/07/02 11:09:49;;;;;;;3.60;2.25;;;;;;;28.37;40.02;94614.16;4787279;30;20031;-88
2021/07/02 11:12:23;;;;;;;2.88;2.08;;;;;;;28.25;39.65;94621.31;4785778;30;20035;-85
2021/07/02 11:14:55;;;;;;;3.38;2.13;;;;;;;27.85;39.00;94623.16;4786497;30;20051;-86
2021/07/02 11:17:21;;;;;;;2.85;2.00;;;;;;;27.53;38.48;94615.97;4785277;30;20150;-83
2021/07/02 11:19:47;;;;;;;3.65;2.22;;;;;;;26.95;38.32;94541.97;4783640;30;20089;-82
2021/07/02 11:22:29;;;;;;;3.25;2.10;;;;;;;27.10;37.98;94605.06;4768162;30;20096;-87
2021/07/02 11:25:03;;;;;;;3.10;1.85;;;;;;;27.09;38.61;94614.53;4786246;29;20032;-87
2021/07/02 11:27:36;;;;;;;5.03;2.20;;;;;;;26.99;38.73;94610.84;4759605;30;20116;-89
2021/07/02 11:30:07;;;;;;;2.33;2.13;;;;;;;26.82;38.91;94596.88;4788656;30;20039;-86
2021/07/02 11:32:32;;;;;;;2.47;1.70;;;;;;;26.31;39.36;94542.59;4789896;30;20039;-89
2021/07/02 11:35:39;;;;;;;2.60;2.08;;;;;;;26.87;40.70;94615.16;4771886;30;20031;-87
2021/07/02 11:38:11;;;;;;;2.95;2.17;;;;;;;26.86;41.11;94627.41;4713234;30;20060;-87